Time;durP1;ratioP1;P1;durP2;ratioP2;P2;SDS_P1;SDS_P2;PMS_P1;PMS_P2;Temp;Humidity;BMP_temperature;BMP_pressure;BME280_temperature;BME280_humidity;BME280_pressure;Samples;Min_cycle;Max_cycle;Signal;HPM_P1;HPM_P2
2024/04/14 00:00:44;;;;;;;3.03;1.50;;;;;;;8.58;63.02;100338.66;5411671;26;20222;-69
2024/04/14 00:03:15;;;;;;;3.60;1.30;;;;;;;8.56;63.03;100341.31;5416532;26;20603;-69
2024/04/14 00:05:41;;;;;;;3.57;2.03;;;;;;;8.56;63.21;100333.50;5416400;26;20224;-70
2024/04/14 00:08:10;;;;;;;4.13;1.30;;;;;;;8.53;63.43;100319.66;5416312;26;20223;-69
2024/04/14 00:10:35;;;;;;;8.57;1.63;;;;;;;8.55;63.43;100307.44;5416204;26;20223;-69
2024/04/14 00:13:04;;;;;;;6.70;1.90;;;;;;;8.53;63.45;100299.63;5416485;26;20331;-69
2024/04/14 00:15:32;;;;;;;5.30;1.50;;;;;;;8.52;63.70;100295.31;5416377;26;20235;-69
2024/04/14 00:18:01;;;;;;;4.20;1.77;;;;;;;8.52;63.81;100287.50;5416240;26;20225;-69
2024/04/14 00:20:28;;;;;;;5.37;1.57;;;;;;;8.49;63.80;100277.16;5416465;26;20343;-69
2024/04/14 00:22:56;;;;;;;6.43;1.97;;;;;;;8.51;64.12;100264.94;5416126;26;20226;-69
2024/04/14 00:25:22;;;;;;;7.07;1.87;;;;;;;8.51;64.17;100264.94;5410213;26;20282;-69
2024/04/14 00:27:51;;;;;;;3.73;2.07;;;;;;;8.50;64.20;100262.34;5415768;26;20340;-69
2024/04/14 00:30:17;;;;;;;5.03;1.50;;;;;;;8.50;64.42;100252.78;5416062;26;20255;-69
2024/04/14 00:32:50;;;;;;;6.00;2.00;;;;;;;8.47;64.70;100239.81;5415813;26;20226;-69
2024/04/14 00:35:16;;;;;;;5.57;1.73;;;;;;;8.48;64.63;100251.97;5416115;26;20709;-69
2024/04/14 00:37:45;;;;;;;4.40;1.50;;;;;;;8.46;64.87;100243.31;5412975;26;20258;-69
2024/04/14 00:40:11;;;;;;;5.07;1.67;;;;;;;8.48;64.46;100245.88;5415728;26;20286;-69
2024/04/14 00:42:39;;;;;;;6.00;1.70;;;;;;;8.47;64.81;100242.41;5415830;26;20716;-69
2024/04/14 00:45:06;;;;;;;2.43;1.40;;;;;;;8.49;64.99;100237.19;5415860;26;20224;-69
2024/04/14 00:47:35;;;;;;;4.47;1.80;;;;;;;8.47;65.10;100232.00;5415828;26;20220;-69
2024/04/14 00:50:07;;;;;;;3.77;1.70;;;;;;;8.47;65.14;100211.13;5415295;26;20235;-69
2024/04/14 00:52:36;;;;;;;4.17;1.83;;;;;;;8.46;65.18;100207.69;5415609;26;20224;-69
2024/04/14 00:55:02;;;;;;;4.60;1.57;;;;;;;8.46;65.39;100204.22;5415529;26;20266;-69
2024/04/14 00:57:31;;;;;;;5.57;1.90;;;;;;;8.46;65.46;100185.97;5415493;26;20220;-69
2024/04/14 00:59:57;;;;;;;5.40;1.80;;;;;;;8.47;65.26;100177.25;5415550;26;20236;-69
2024/04/14 01:02:26;;;;;;;3.60;1.57;;;;;;;8.48;65.23;100170.28;5418837;26;20266;-69
2024/04/14 01:04:51;;;;;;;5.13;1.83;;;;;;;8.48;65.42;100163.34;5419206;26;20232;-69
2024/04/14 01:07:23;;;;;;;5.67;1.63;;;;;;;8.48;65.44;100160.72;5418129;26;20256;-69
2024/04/14 01:09:50;;;;;;;4.00;2.00;;;;;;;8.44;65.44;100151.25;5419069;26;20291;-75
2024/04/14 01:12:18;;;;;;;6.23;1.73;;;;;;;8.49;65.66;100157.22;5419170;26;20223;-75
2024/04/14 01:14:44;;;;;;;3.87;1.87;;;;;;;8.46;65.97;100147.72;5418917;26;20266;-74
2024/04/14 01:17:13;;;;;;;5.73;1.87;;;;;;;8.46;65.78;100141.66;5418951;26;20219;-74
2024/04/14 01:19:38;;;;;;;5.30;1.77;;;;;;;8.49;65.90;100141.56;5419358;26;20232;-75
2024/04/14 01:22:07;;;;;;;4.93;1.87;;;;;;;8.48;66.05;100139.88;5418975;26;20668;-75
2024/04/14 01:24:35;;;;;;;5.87;1.73;;;;;;;8.41;65.98;100123.50;5416639;26;20336;-75
2024/04/14 01:27:07;;;;;;;4.40;1.63;;;;;;;8.44;66.09;100122.56;5414187;26;20228;-75
2024/04/14 01:29:33;;;;;;;7.57;1.80;;;;;;;8.47;66.05;100117.28;5419007;26;20279;-75
2024/04/14 01:32:01;;;;;;;5.97;1.60;;;;;;;8.45;66.26;100106.06;5418828;26;20231;-75
2024/04/14 01:34:27;;;;;;;7.13;1.83;;;;;;;8.46;66.44;100115.56;5418897;26;20324;-75
2024/04/14 01:36:56;;;;;;;3.43;1.57;;;;;;;8.46;66.51;100111.22;5418751;26;20629;-75
2024/04/14 01:39:22;;;;;;;4.90;1.90;;;;;;;8.47;66.32;100109.47;5418764;26;20346;-75
2024/04/14 01:41:50;;;;;;;4.20;1.70;;;;;;;8.47;66.33;100112.06;5414778;26;20236;-75
2024/04/14 01:44:19;;;;;;;4.97;1.80;;;;;;;8.47;66.37;100101.63;5418662;26;20220;-75
2024/04/14 01:46:47;;;;;;;4.53;2.17;;;;;;;8.45;66.53;100100.84;5418853;26;20217;-75
2024/04/14 01:49:13;;;;;;;4.03;1.73;;;;;;;8.45;66.49;100099.09;5418603;26;20286;-75
2024/04/14 01:51:42;;;;;;;4.53;1.83;;;;;;;8.46;66.47;100092.13;5412610;26;20345;-75
2024/04/14 01:54:08;;;;;;;6.33;1.90;;;;;;;8.46;66.49;100100.78;5418472;26;20236;-75
2024/04/14 01:56:36;;;;;;;6.07;1.70;;;;;;;8.45;66.35;100090.41;5418317;26;20219;-75
2024/04/14 01:59:03;;;;;;;4.17;2.10;;;;;;;8.46;66.41;100082.53;5418428;26;20312;-75
2024/04/14 02:01:34;;;;;;;5.30;1.80;;;;;;;8.41;66.57;100066.16;5418520;26;20279;-75
2024/04/14 02:04:00;;;;;;;2.43;1.50;;;;;;;8.44;66.37;100060.84;5418617;26;20232;-75
2024/04/14 02:06:28;;;;;;;6.90;1.93;;;;;;;8.45;66.62;100056.53;5418291;26;20537;-75
2024/04/14 02:08:54;;;;;;;5.73;1.97;;;;;;;8.45;66.35;100038.28;5417288;26;20280;-75
2024/04/14 02:11:23;;;;;;;4.87;2.03;;;;;;;8.46;66.76;100032.16;5417939;26;20876;-68
2024/04/14 02:13:49;;;;;;;5.33;1.80;;;;;;;8.45;66.66;100020.88;5418190;26;20288;-69
2024/04/14 02:16:17;;;;;;;7.30;1.90;;;;;;;8.45;67.12;100005.25;5418328;26;20603;-68
2024/04/14 02:18:46;;;;;;;6.63;2.07;;;;;;;8.46;66.68;100006.09;5418010;26;20290;-69
2024/04/14 02:21:14;;;;;;;5.43;1.97;;;;;;;8.42;66.80;99980.97;5417711;26;20328;-68
2024/04/14 02:23:40;;;;;;;6.13;1.50;;;;;;;8.42;66.54;99973.16;5418116;26;20279;-69
2024/04/14 02:26:09;;;;;;;3.70;1.50;;;;;;;8.48;66.74;99983.44;5417969;26;20214;-68
2024/04/14 02:28:35;;;;;;;4.13;1.70;;;;;;;8.49;66.87;99973.88;5418046;26;20349;-69
2024/04/14 02:31:03;;;;;;;3.97;1.70;;;;;;;8.49;66.83;99959.06;5417894;26;20235;-74
2024/04/14 02:33:29;;;;;;;3.17;1.17;;;;;;;8.51;66.60;99978.16;5417870;26;20345;-75
2024/04/14 02:36:01;;;;;;;2.93;0.90;;;;;;;8.52;66.26;99974.63;5411530;26;20637;-74
2024/04/14 02:38:28;;;;;;;2.27;1.03;;;;;;;8.48;66.12;99966.94;5418214;26;20328;-74
2024/04/14 02:40:58;;;;;;;5.13;1.67;;;;;;;8.53;66.22;99962.44;5417767;26;20232;-75
2024/04/14 02:43:24;;;;;;;2.77;1.43;;;;;;;8.51;66.03;99959.91;5413782;26;20224;-75
2024/04/14 02:45:53;;;;;;;6.20;1.37;;;;;;;8.52;66.18;99955.53;5417419;26;20224;-74
2024/04/14 02:48:18;;;;;;;4.07;1.53;;;;;;;8.51;66.24;99948.63;5418005;26;20331;-75
2024/04/14 02:50:47;;;;;;;3.13;1.33;;;;;;;8.51;66.13;99951.22;5418041;26;20621;-74
2024/04/14 02:53:16;;;;;;;4.33;1.40;;;;;;;8.49;66.55;99943.44;5417474;26;20323;-74
2024/04/14 02:55:45;;;;;;;4.17;1.30;;;;;;;8.50;66.30;99939.91;5417803;26;20334;-74
2024/04/14 02:58:11;;;;;;;4.00;1.40;;;;;;;8.50;66.48;99928.66;5417647;26;20328;-75
2024/04/14 03:00:40;;;;;;;3.10;1.63;;;;;;;8.51;66.83;99927.78;5417698;26;20223;-75
2024/04/14 03:03:06;;;;;;;3.70;1.70;;;;;;;8.49;66.64;99922.59;5417760;26;20221;-74
2024/04/14 03:05:35;;;;;;;3.50;1.70;;;;;;;8.49;66.95;99922.59;5417528;26;20577;-74
2024/04/14 03:08:04;;;;;;;6.90;1.80;;;;;;;8.49;67.15;99906.94;5417401;26;20236;-75
2024/04/14 03:10:35;;;;;;;5.57;1.50;;;;;;;8.48;67.45;99900.03;5417334;26;20286;-74
2024/04/14 03:13:01;;;;;;;4.40;1.70;;;;;;;8.49;67.56;99893.91;5417497;26;20217;-74
2024/04/14 03:15:30;;;;;;;6.13;2.00;;;;;;;8.49;67.73;99891.31;5417189;26;20219;-73
2024/04/14 03:17:56;;;;;;;3.03;1.43;;;;;;;8.48;67.82;99881.78;5411161;26;20223;-73
2024/04/14 03:20:25;;;;;;;6.57;1.50;;;;;;;8.47;67.96;99869.63;5417308;26;20726;-75
2024/04/14 03:22:51;;;;;;;3.93;1.80;;;;;;;8.47;67.97;99861.81;5416572;26;20358;-75
2024/04/14 03:25:19;;;;;;;4.17;1.60;;;;;;;8.47;68.41;99851.38;5416179;26;20728;-75
2024/04/14 03:27:48;;;;;;;4.50;1.57;;;;;;;8.40;68.46;99826.41;5416953;26;20809;-75
2024/04/14 03:30:17;;;;;;;3.13;1.33;;;;;;;8.46;68.56;99831.44;5416835;26;20218;-74
2024/04/14 03:32:43;;;;;;;4.53;1.40;;;;;;;8.46;68.53;99826.22;5416959;26;20697;-75
2024/04/14 03:35:11;;;;;;;4.73;1.47;;;;;;;8.45;68.71;99809.72;5415275;26;20260;-75
2024/04/14 03:37:41;;;;;;;8.00;1.83;;;;;;;8.45;68.49;99807.13;5416857;26;20270;-75
2024/04/14 03:40:10;;;;;;;4.47;1.30;;;;;;;8.45;68.56;99796.69;5416855;26;20762;-72
2024/04/14 03:42:39;;;;;;;2.03;1.20;;;;;;;8.45;68.47;99782.81;5410642;26;20291;-72
2024/04/14 03:45:12;;;;;;;7.80;1.70;;;;;;;8.43;68.83;99787.22;5416695;26;20301;-72
2024/04/14 03:47:40;;;;;;;4.33;1.67;;;;;;;8.39;68.62;99777.75;5415355;26;20223;-72
2024/04/14 03:50:07;;;;;;;5.73;1.80;;;;;;;8.35;68.92;99774.41;5413775;26;20430;-72
2024/04/14 03:52:35;;;;;;;4.97;1.67;;;;;;;8.33;68.75;99759.69;5416607;26;20704;-72
2024/04/14 03:55:01;;;;;;;7.40;1.80;;;;;;;8.30;68.86;99754.56;5416397;26;20227;-72
2024/04/14 03:57:30;;;;;;;3.77;1.27;;;;;;;8.29;68.98;99748.53;5416538;26;20266;-72
2024/04/14 03:59:56;;;;;;;2.53;1.30;;;;;;;8.26;68.99;99732.97;5410685;26;20273;-72
2024/04/14 04:02:27;;;;;;;7.03;1.83;;;;;;;8.27;69.15;99731.22;5416591;26;20227;-72
2024/04/14 04:04:53;;;;;;;7.57;1.70;;;;;;;8.26;69.04;99725.16;5416309;26;20215;-72
2024/04/14 04:07:21;;;;;;;5.40;1.73;;;;;;;8.27;69.01;99712.97;5416402;26;20565;-71
2024/04/14 04:09:47;;;;;;;4.50;1.53;;;;;;;8.26;68.94;99703.47;5416298;26;20333;-71
2024/04/14 04:12:15;;;;;;;5.07;1.60;;;;;;;8.24;69.11;99688.72;5416031;26;20235;-72
2024/04/14 04:14:41;;;;;;;4.40;1.60;;;;;;;8.21;69.20;99678.38;5416393;26;20223;-72
2024/04/14 04:17:10;;;;;;;6.77;1.53;;;;;;;8.19;69.29;99680.19;5416424;26;20600;-72
2024/04/14 04:19:38;;;;;;;3.77;1.40;;;;;;;8.20;69.53;99683.66;5416399;26;20234;-72
2024/04/14 04:22:07;;;;;;;4.07;1.40;;;;;;;8.18;69.39;99670.66;5416206;26;20226;-72
2024/04/14 04:24:33;;;;;;;6.50;1.70;;;;;;;8.17;69.32;99666.34;5409223;26;20278;-72
2024/04/14 04:27:01;;;;;;;2.87;1.40;;;;;;;8.07;69.48;99638.88;5416124;26;20252;-72
2024/04/14 04:29:28;;;;;;;4.23;1.60;;;;;;;8.15;69.61;99647.31;5415638;26;20809;-72
2024/04/14 04:31:57;;;;;;;3.73;1.50;;;;;;;8.14;69.68;99632.59;5415862;26;20338;-69
2024/04/14 04:34:23;;;;;;;3.97;1.50;;;;;;;8.16;69.38;99625.59;5412870;26;20220;-69
2024/04/14 04:36:54;;;;;;;6.60;1.70;;;;;;;8.17;69.89;99622.06;5419421;26;20219;-69
2024/04/14 04:39:20;;;;;;;4.47;1.80;;;;;;;8.17;69.64;99618.63;5419229;26;20234;-69
2024/04/14 04:41:48;;;;;;;5.00;1.90;;;;;;;8.15;69.72;99605.63;5419121;26;20731;-69
2024/04/14 04:44:14;;;;;;;4.07;1.73;;;;;;;8.15;70.07;99599.56;5419509;26;20700;-69
2024/04/14 04:46:43;;;;;;;4.90;1.47;;;;;;;8.14;69.76;99584.84;5419175;26;20231;-69
2024/04/14 04:49:09;;;;;;;3.93;1.57;;;;;;;8.13;69.71;99585.72;5419037;26;20286;-69
2024/04/14 04:51:37;;;;;;;5.87;1.70;;;;;;;8.12;69.87;99579.66;5419147;26;20222;-70
2024/04/14 04:54:06;;;;;;;5.30;1.77;;;;;;;8.12;69.98;99571.84;5419284;26;20302;-70
2024/04/14 04:56:34;;;;;;;4.03;1.40;;;;;;;8.13;69.85;99565.72;5416021;26;20253;-70
2024/04/14 04:59:00;;;;;;;4.23;1.67;;;;;;;8.12;69.70;99557.97;5419052;26;20235;-70
2024/04/14 05:01:29;;;;;;;3.70;1.83;;;;;;;8.11;69.98;99557.13;5419075;26;20692;-70
2024/04/14 05:03:55;;;;;;;4.50;1.73;;;;;;;8.10;69.87;99547.59;5419198;26;20348;-70
2024/04/14 05:06:23;;;;;;;4.80;1.80;;;;;;;8.10;69.95;99536.31;5418934;26;20220;-70
2024/04/14 05:08:49;;;;;;;4.77;1.70;;;;;;;8.09;70.11;99538.09;5419026;26;20231;-70
2024/04/14 05:11:20;;;;;;;5.17;1.90;;;;;;;8.09;70.13;99534.63;5418859;26;20222;-70
2024/04/14 05:13:46;;;;;;;6.67;1.73;;;;;;;8.06;70.23;99530.38;5418788;26;20283;-70
2024/04/14 05:16:15;;;;;;;4.93;2.00;;;;;;;8.07;70.21;99524.25;5418787;26;20319;-70
2024/04/14 05:18:41;;;;;;;5.70;1.83;;;;;;;8.06;70.62;99512.13;5416142;26;20222;-70
2024/04/14 05:21:10;;;;;;;3.33;1.70;;;;;;;8.07;70.35;99508.63;5418766;26;20276;-70
2024/04/14 05:23:36;;;;;;;3.23;1.60;;;;;;;8.05;70.55;99500.03;5418704;26;20268;-70
2024/04/14 05:26:04;;;;;;;4.13;1.80;;;;;;;8.06;70.61;99486.09;5418586;26;20284;-70
2024/04/14 05:28:33;;;;;;;4.57;1.40;;;;;;;8.07;70.65;99477.34;5412685;26;20290;-70
2024/04/14 05:31:01;;;;;;;5.07;2.00;;;;;;;8.06;70.67;99469.63;5418666;26;20250;-70
2024/04/14 05:33:27;;;;;;;5.33;1.40;;;;;;;8.06;70.65;99461.78;5418583;26;20275;-70
2024/04/14 05:35:57;;;;;;;2.97;1.70;;;;;;;8.04;70.57;99459.22;5418716;26;20223;-70
2024/04/14 05:38:23;;;;;;;6.63;1.60;;;;;;;8.06;70.76;99472.22;5418609;26;20270;-70
2024/04/14 05:40:51;;;;;;;6.30;1.90;;;;;;;8.07;70.93;99473.91;5417579;26;20238;-75
2024/04/14 05:43:17;;;;;;;4.90;2.10;;;;;;;8.07;70.97;99479.13;5418364;26;20223;-75
2024/04/14 05:45:48;;;;;;;4.33;2.17;;;;;;;8.08;71.13;99471.28;5417557;26;20266;-75
2024/04/14 05:48:14;;;;;;;2.97;1.70;;;;;;;8.09;71.41;99462.53;5417717;26;20763;-74
2024/04/14 05:50:43;;;;;;;2.40;1.87;;;;;;;8.09;71.38;99439.09;5418464;26;20223;-75
2024/04/14 05:53:09;;;;;;;3.53;1.50;;;;;;;8.10;71.34;99434.72;5418478;26;20290;-74
2024/04/14 05:55:37;;;;;;;1.97;1.50;;;;;;;8.10;71.42;99406.06;5418388;26;20355;-75
2024/04/14 05:58:06;;;;;;;2.90;1.10;;;;;;;8.09;71.66;99402.63;5418625;26;20286;-74
2024/04/14 06:00:35;;;;;;;2.83;1.20;;;;;;;8.09;71.62;99376.56;5418354;26;20266;-77
2024/04/14 06:03:07;;;;;;;2.00;1.00;;;;;;;8.05;71.45;99367.19;5416327;26;20276;-78
2024/04/14 06:05:33;;;;;;;2.43;1.20;;;;;;;8.07;71.64;99373.16;5418274;26;20222;-77
2024/04/14 06:08:01;;;;;;;3.43;1.10;;;;;;;8.06;71.80;99366.25;5418301;26;20277;-78
2024/04/14 06:10:27;;;;;;;3.17;1.10;;;;;;;8.10;72.20;99375.66;5418216;26;20219;-78
2024/04/14 06:12:56;;;;;;;2.37;1.07;;;;;;;8.09;72.31;99387.00;5418199;26;20274;-76
2024/04/14 06:15:22;;;;;;;2.80;1.20;;;;;;;7.98;72.12;99363.06;5418135;26;20282;-76
2024/04/14 06:17:50;;;;;;;2.00;0.93;;;;;;;8.13;72.25;99382.53;5418525;26;20226;-76
2024/04/14 06:20:19;;;;;;;2.07;0.97;;;;;;;8.10;72.43;99382.63;5418110;26;20797;-76
2024/04/14 06:22:47;;;;;;;0.93;0.90;;;;;;;8.14;72.29;99381.63;5417960;26;20328;-77
2024/04/14 06:25:13;;;;;;;2.63;1.00;;;;;;;8.14;72.28;99377.28;5418424;26;20319;-76
2024/04/14 06:27:42;;;;;;;1.83;0.77;;;;;;;8.14;72.75;99376.44;5418511;26;20231;-76
2024/04/14 06:30:08;;;;;;;1.27;0.60;;;;;;;8.05;72.75;99361.97;5418169;26;20237;-76
2024/04/14 06:32:37;;;;;;;0.63;0.50;;;;;;;8.14;72.69;99364.25;5418115;26;20227;-78
2024/04/14 06:35:05;;;;;;;0.40;0.40;;;;;;;8.14;72.76;99366.84;5418145;26;20278;-76
2024/04/14 06:37:37;;;;;;;2.57;0.60;;;;;;;8.11;73.22;99356.53;5412164;26;20262;-77
2024/04/14 06:40:03;;;;;;;0.60;0.60;;;;;;;8.13;72.95;99370.34;5417934;26;20282;-76
2024/04/14 06:42:32;;;;;;;0.47;0.47;;;;;;;8.16;72.97;99375.47;5417980;26;20275;-76
2024/04/14 06:44:58;;;;;;;0.83;0.50;;;;;;;8.15;73.03;99365.94;5415696;26;20235;-77
2024/04/14 06:47:26;;;;;;;0.60;0.47;;;;;;;8.16;72.85;99358.97;5417912;26;20331;-76
2024/04/14 06:49:52;;;;;;;1.13;0.80;;;;;;;8.09;72.90;99339.25;5417849;26;20336;-76
2024/04/14 06:52:21;;;;;;;1.03;0.53;;;;;;;8.16;72.95;99349.41;5417845;26;20235;-74
2024/04/14 06:54:49;;;;;;;0.70;0.60;;;;;;;8.17;72.84;99345.91;5411714;26;20231;-74
2024/04/14 06:57:18;;;;;;;0.60;0.60;;;;;;;8.17;72.80;99345.91;5417942;26;20238;-75
2024/04/14 06:59:43;;;;;;;1.47;0.63;;;;;;;8.17;72.75;99327.66;5416065;26;20223;-74
2024/04/14 07:02:12;;;;;;;1.73;0.70;;;;;;;8.19;72.59;99333.69;5417557;26;20226;-73
2024/04/14 07:04:38;;;;;;;0.73;0.50;;;;;;;8.20;72.57;99330.16;5417174;26;20809;-73
2024/04/14 07:07:07;;;;;;;1.13;0.60;;;;;;;8.23;72.72;99326.59;5417846;26;20230;-73
2024/04/14 07:09:32;;;;;;;0.70;0.60;;;;;;;8.25;72.73;99327.41;5417334;26;20222;-72
2024/04/14 07:12:04;;;;;;;1.27;0.60;;;;;;;8.28;72.75;99323.81;5416836;26;20332;-74
2024/04/14 07:14:30;;;;;;;0.87;0.60;;;;;;;8.32;72.82;99335.84;5418035;26;20235;-74
2024/04/14 07:16:58;;;;;;;2.60;0.93;;;;;;;8.33;72.69;99327.94;5417537;26;20317;-74
2024/04/14 07:19:24;;;;;;;2.20;0.80;;;;;;;8.36;72.45;99330.47;5387227;26;20280;-74
2024/04/14 07:21:53;;;;;;;2.37;0.70;;;;;;;8.36;72.64;99316.56;5417197;26;20223;-74
2024/04/14 07:24:18;;;;;;;1.10;0.67;;;;;;;8.40;72.62;99312.94;5417144;26;20342;-73
2024/04/14 07:26:47;;;;;;;1.33;0.67;;;;;;;8.42;72.64;99312.00;5417137;26;20238;-73
2024/04/14 07:29:16;;;;;;;1.37;1.00;;;;;;;8.43;72.65;99305.00;5417176;26;20677;-73
2024/04/14 07:31:44;;;;;;;0.73;0.70;;;;;;;8.45;72.73;99322.28;5412124;26;20223;-74
2024/04/14 07:34:10;;;;;;;1.50;0.63;;;;;;;8.48;72.84;99303.09;5417013;26;20803;-74
2024/04/14 07:36:39;;;;;;;1.50;0.60;;;;;;;8.49;72.85;99302.19;5417184;26;20293;-73
2024/04/14 07:39:05;;;;;;;1.90;0.80;;;;;;;8.53;72.57;99302.91;5410973;26;20328;-74
2024/04/14 07:41:34;;;;;;;1.13;0.80;;;;;;;8.54;72.81;99300.25;5416246;26;20247;-74
2024/04/14 07:43:59;;;;;;;1.10;0.80;;;;;;;8.54;72.65;99287.22;5417153;26;20235;-74
2024/04/14 07:46:32;;;;;;;1.80;0.97;;;;;;;8.57;72.43;99279.28;5417268;26;20270;-74
2024/04/14 07:48:58;;;;;;;1.63;0.80;;;;;;;8.55;72.58;99294.13;5417049;26;20341;-74
2024/04/14 07:51:26;;;;;;;1.57;0.80;;;;;;;8.55;72.22;99296.72;5416978;26;20713;-74
2024/04/14 07:53:52;;;;;;;1.03;0.63;;;;;;;8.56;72.18;99300.19;5417220;26;20341;-74
2024/04/14 07:56:21;;;;;;;2.23;0.70;;;;;;;8.48;72.30;99277.03;5416331;26;20235;-74
2024/04/14 07:58:48;;;;;;;2.10;0.97;;;;;;;8.54;72.13;99289.81;5416807;26;20273;-74
2024/04/14 08:01:17;;;;;;;1.43;0.70;;;;;;;8.54;72.16;99287.22;5417179;26;20692;-70
2024/04/14 08:03:45;;;;;;;1.50;0.70;;;;;;;8.58;72.50;99286.19;5416858;26;20280;-70
2024/04/14 08:06:14;;;;;;;2.80;0.73;;;;;;;8.60;72.32;99279.16;5416873;26;20266;-70
2024/04/14 08:08:39;;;;;;;2.83;1.20;;;;;;;8.65;72.34;99276.38;5416912;26;20224;-70
2024/04/14 08:11:08;;;;;;;2.40;1.13;;;;;;;8.66;72.43;99245.03;5419480;26;20609;-70
2024/04/14 08:13:34;;;;;;;2.37;0.90;;;;;;;8.77;72.14;99275.06;5418695;26;20263;-70
2024/04/14 08:16:03;;;;;;;1.73;0.80;;;;;;;8.80;72.08;99278.38;5420123;26;20270;-70
2024/04/14 08:18:29;;;;;;;0.97;0.60;;;;;;;8.86;72.15;99266.88;5420242;26;20339;-70
2024/04/14 08:21:05;;;;;;;2.60;1.00;;;;;;;8.87;72.12;99258.13;5420208;26;20235;-75
2024/04/14 08:23:31;;;;;;;3.30;0.80;;;;;;;8.98;71.79;99266.38;5417084;26;20223;-76
2024/04/14 08:26:02;;;;;;;3.53;0.80;;;;;;;9.06;71.39;99264.28;5420124;26;20231;-76
2024/04/14 08:28:28;;;;;;;2.50;1.00;;;;;;;9.10;71.25;99265.88;5420016;26;20225;-76
2024/04/14 08:30:57;;;;;;;3.87;0.93;;;;;;;9.12;70.76;99269.25;5419931;26;20227;-76
2024/04/14 08:33:22;;;;;;;2.43;0.70;;;;;;;9.17;70.34;99265.63;5419866;26;20332;-76
2024/04/14 08:35:51;;;;;;;3.43;1.43;;;;;;;9.14;70.10;99259.63;5420026;26;20235;-76
2024/04/14 08:38:19;;;;;;;3.83;1.03;;;;;;;9.21;69.81;99265.44;5418917;26;20322;-76
2024/04/14 08:40:54;;;;;;;3.63;0.87;;;;;;;9.16;69.60;99253.47;5419538;26;20236;-76
2024/04/14 08:43:20;;;;;;;1.70;0.90;;;;;;;9.19;69.47;99262.06;5420011;26;20270;-76
2024/04/14 08:45:50;;;;;;;6.13;1.13;;;;;;;9.22;68.96;99255.88;5419777;26;20318;-76
2024/04/14 08:48:17;;;;;;;1.07;0.97;;;;;;;9.23;68.17;99268.00;5419905;26;20253;-76
2024/04/14 08:50:48;;;;;;;1.87;0.77;;;;;;;9.13;68.37;99247.50;5419518;26;20741;-76
2024/04/14 08:53:17;;;;;;;2.33;0.90;;;;;;;9.19;68.00;99262.06;5417154;26;20775;-76
2024/04/14 08:55:49;;;;;;;4.93;1.27;;;;;;;9.19;68.52;99256.84;5419905;26;20228;-76
2024/04/14 08:58:16;;;;;;;1.90;0.90;;;;;;;9.22;68.35;99251.50;5419764;26;20288;-76
2024/04/14 09:00:47;;;;;;;2.60;0.87;;;;;;;9.23;68.32;99242.72;5419620;26;20270;-76
2024/04/14 09:03:13;;;;;;;1.60;0.97;;;;;;;9.21;68.21;99239.34;5419598;26;20712;-76
2024/04/14 09:05:43;;;;;;;6.70;1.00;;;;;;;9.23;68.26;99226.22;5419807;26;20229;-76
2024/04/14 09:08:09;;;;;;;2.70;0.90;;;;;;;9.28;68.05;99239.97;5415148;26;20284;-77
2024/04/14 09:10:38;;;;;;;1.77;0.77;;;;;;;9.27;67.49;99238.25;5419599;26;20225;-76
2024/04/14 09:13:08;;;;;;;4.40;1.10;;;;;;;9.20;67.23;99213.31;5416474;26;20630;-77
2024/04/14 09:15:41;;;;;;;4.10;1.03;;;;;;;9.32;67.16;99238.91;5419544;26;20320;-76
2024/04/14 09:18:07;;;;;;;3.50;0.80;;;;;;;9.34;67.38;99245.78;5415849;26;20255;-77
2024/04/14 09:20:35;;;;;;;2.10;0.80;;;;;;;9.34;67.36;99230.13;5419876;26;20231;-76
2024/04/14 09:23:02;;;;;;;2.93;0.90;;;;;;;9.40;67.01;99241.22;5418394;26;20660;-76
2024/04/14 09:25:31;;;;;;;2.73;0.83;;;;;;;9.42;67.32;99235.03;5419017;26;20251;-76
2024/04/14 09:28:03;;;;;;;1.97;0.90;;;;;;;9.47;67.20;99227.84;5419319;26;20239;-76
2024/04/14 09:30:34;;;;;;;1.40;0.80;;;;;;;9.50;67.28;99225.09;5418841;26;20324;-76
2024/04/14 09:33:00;;;;;;;1.33;0.73;;;;;;;9.44;67.29;99214.91;5418977;26;20225;-76
2024/04/14 09:35:29;;;;;;;3.10;0.90;;;;;;;9.58;66.96;99227.38;5418925;26;20267;-75
2024/04/14 09:37:55;;;;;;;3.77;1.00;;;;;;;9.62;66.91;99243.78;5419051;26;20220;-75
2024/04/14 09:40:25;;;;;;;3.70;0.80;;;;;;;9.62;66.86;99218.50;5417784;26;20271;-73
2024/04/14 09:42:55;;;;;;;3.07;0.67;;;;;;;9.58;66.48;99217.75;5419031;26;20224;-73
2024/04/14 09:45:26;;;;;;;1.97;0.87;;;;;;;9.68;66.23;99227.84;5418835;26;20260;-73
2024/04/14 09:47:56;;;;;;;1.77;0.90;;;;;;;9.71;66.50;99222.47;5418439;26;20252;-74
2024/04/14 09:50:25;;;;;;;3.73;0.83;;;;;;;9.73;65.99;99228.44;5418637;26;20228;-74
2024/04/14 09:52:52;;;;;;;1.77;0.80;;;;;;;9.74;66.21;99222.34;5418372;26;20228;-73
2024/04/14 09:55:21;;;;;;;1.97;0.77;;;;;;;9.73;65.81;99215.41;5418989;26;20221;-73
2024/04/14 09:57:48;;;;;;;3.00;1.30;;;;;;;9.73;65.78;99220.63;5415402;26;20343;-73
2024/04/14 10:00:18;;;;;;;3.20;0.83;;;;;;;9.72;65.98;99219.78;5418624;26;20221;-72
2024/04/14 10:02:50;;;;;;;4.30;0.80;;;;;;;9.74;66.00;99224.94;5417954;26;20212;-73
2024/04/14 10:05:21;;;;;;;4.03;0.90;;;;;;;9.58;65.97;99207.31;5418848;26;20257;-73
2024/04/14 10:07:48;;;;;;;2.67;0.90;;;;;;;9.73;65.62;99226.72;5418719;26;20225;-73
2024/04/14 10:10:19;;;;;;;2.50;0.90;;;;;;;9.74;66.12;99217.13;5418554;26;20216;-73
2024/04/14 10:12:45;;;;;;;3.20;1.40;;;;;;;9.75;66.14;99231.84;5418508;26;20251;-73
2024/04/14 10:15:18;;;;;;;4.77;0.90;;;;;;;9.73;66.07;99231.06;5418579;26;20224;-74
2024/04/14 10:17:46;;;;;;;2.20;1.00;;;;;;;9.72;66.42;99234.59;5416824;26;20324;-74
2024/04/14 10:20:17;;;;;;;2.80;0.80;;;;;;;9.69;66.00;99235.59;5418542;26;20262;-74
2024/04/14 10:22:46;;;;;;;1.97;0.77;;;;;;;9.67;66.05;99231.34;5418286;26;20701;-73
2024/04/14 10:25:22;;;;;;;2.37;0.80;;;;;;;9.66;66.55;99224.44;5413506;26;20247;-73
2024/04/14 10:27:48;;;;;;;1.87;0.67;;;;;;;9.61;66.67;99229.00;5418114;26;20216;-73
2024/04/14 10:30:23;;;;;;;1.77;0.90;;;;;;;9.61;66.77;99223.78;5418796;26;20227;-73
2024/04/14 10:33:03;;;;;;;3.23;0.73;;;;;;;9.57;66.70;99221.31;5418125;26;20236;-73
2024/04/14 10:35:29;;;;;;;3.13;0.70;;;;;;;9.55;66.77;99224.88;5415961;26;20224;-73
2024/04/14 10:38:00;;;;;;;2.93;0.70;;;;;;;9.52;66.42;99218.03;5418341;26;20332;-73
2024/04/14 10:40:26;;;;;;;2.13;0.60;;;;;;;9.50;67.00;99212.06;5418112;26;20737;-73
2024/04/14 10:42:54;;;;;;;1.67;0.80;;;;;;;9.48;66.81;99213.88;5418335;26;20224;-74
2024/04/14 10:45:27;;;;;;;2.93;0.77;;;;;;;9.46;67.05;99215.69;5418032;26;20327;-73
2024/04/14 10:47:58;;;;;;;2.33;0.80;;;;;;;9.42;66.98;99208.91;5417941;26;20221;-73
2024/04/14 10:50:25;;;;;;;3.00;1.00;;;;;;;9.43;66.79;99199.31;5418244;26;20228;-73
2024/04/14 10:52:54;;;;;;;1.83;0.70;;;;;;;9.39;66.99;99200.34;5418019;26;20292;-74
2024/04/14 10:55:24;;;;;;;1.97;0.83;;;;;;;9.33;66.94;99199.72;5417228;26;20223;-74
2024/04/14 10:57:52;;;;;;;1.30;0.60;;;;;;;9.33;66.85;99194.50;5418060;26;20277;-74
2024/04/14 11:00:18;;;;;;;2.60;0.77;;;;;;;9.31;66.85;99193.72;5414848;26;20806;-70
2024/04/14 11:02:47;;;;;;;2.67;0.80;;;;;;;9.30;67.05;99196.38;5418074;26;20236;-69
2024/04/14 11:05:13;;;;;;;2.77;0.80;;;;;;;9.28;67.08;99187.78;5416354;26;20327;-70
2024/04/14 11:07:42;;;;;;;1.97;0.80;;;;;;;9.24;67.18;99187.00;5417765;26;20216;-70
2024/04/14 11:10:09;;;;;;;3.63;1.07;;;;;;;9.23;67.19;99193.16;5417982;26;20284;-73
2024/04/14 11:12:42;;;;;;;2.77;1.07;;;;;;;9.21;67.48;99186.28;5417696;26;20224;-74
2024/04/14 11:15:10;;;;;;;3.13;0.93;;;;;;;9.19;67.22;99191.59;5417799;26;20336;-74
2024/04/14 11:17:38;;;;;;;4.00;1.03;;;;;;;9.17;67.51;99192.56;5417759;26;20223;-73
2024/04/14 11:20:06;;;;;;;3.43;1.10;;;;;;;9.13;67.26;99203.13;5417792;26;20317;-74
2024/04/14 11:22:37;;;;;;;1.47;1.00;;;;;;;9.05;67.56;99189.56;5417702;26;20220;-73
2024/04/14 11:25:03;;;;;;;2.53;1.30;;;;;;;9.05;67.53;99197.38;5417845;26;20831;-74
2024/04/14 11:27:31;;;;;;;2.87;0.90;;;;;;;9.01;67.81;99198.41;5417662;26;20261;-73
2024/04/14 11:30:00;;;;;;;3.40;1.00;;;;;;;8.96;67.33;99187.34;5417692;26;20346;-73
2024/04/14 11:32:33;;;;;;;1.67;0.60;;;;;;;8.86;67.63;99178.19;5417624;26;20300;-75
2024/04/14 11:35:00;;;;;;;3.77;0.97;;;;;;;8.87;67.83;99195.53;5417044;26;20267;-76
2024/04/14 11:37:31;;;;;;;2.00;0.70;;;;;;;8.83;67.69;99189.59;5417655;26;20228;-76
2024/04/14 11:39:57;;;;;;;1.20;0.60;;;;;;;8.76;67.87;99184.69;5416363;26;20697;-76
2024/04/14 11:42:26;;;;;;;1.97;0.67;;;;;;;8.72;67.91;99180.50;5417446;26;20223;-78